Time;durP1;ratioP1;P1;durP2;ratioP2;P2;SDS_P1;SDS_P2;PMS_P1;PMS_P2;Temp;Humidity;BMP_temperature;BMP_pressure;BME280_temperature;BME280_humidity;BME280_pressure;Samples;Min_cycle;Max_cycle;Signal;HPM_P1;HPM_P2
2022/02/18 00:00:32;;;;;;;0.85;0.70;;;6.50;99.90;;;;;;5065316;28;20359;-92
2022/02/18 00:03:00;;;;;;;2.30;1.23;;;6.50;99.90;;;;;;5065412;28;20203;-90
2022/02/18 00:05:28;;;;;;;1.70;1.25;;;6.50;99.90;;;;;;5065373;28;20263;-88
2022/02/18 00:07:56;;;;;;;1.25;0.90;;;6.50;99.90;;;;;;5065161;28;20202;-91
2022/02/18 00:10:23;;;;;;;2.97;1.25;;;6.40;99.90;;;;;;5064831;28;20195;-92
2022/02/18 00:12:51;;;;;;;3.08;1.10;;;6.40;99.90;;;;;;5064237;28;20196;-90
2022/02/18 00:15:19;;;;;;;0.70;0.60;;;6.40;99.90;;;;;;5065942;28;20330;-93
2022/02/18 00:17:47;;;;;;;2.85;1.80;;;6.30;99.90;;;;;;5069678;28;20259;-91
2022/02/18 00:20:15;;;;;;;3.22;1.13;;;6.30;99.90;;;;;;5069337;28;20209;-90
2022/02/18 00:22:42;;;;;;;6.88;1.13;;;6.30;99.90;;;;;;5069059;28;20202;-90
2022/02/18 00:25:10;;;;;;;9.77;1.55;;;6.30;99.90;;;;;;5069136;28;20187;-88
2022/02/18 00:27:43;;;;;;;2.45;1.05;;;6.30;99.90;;;;;;5069190;28;20203;-89
2022/02/18 00:30:12;;;;;;;2.97;1.20;;;6.30;99.90;;;;;;5068016;28;20175;-89
2022/02/18 00:32:40;;;;;;;3.25;1.58;;;6.30;99.90;;;;;;5069022;28;20215;-90
2022/02/18 00:35:08;;;;;;;6.72;2.08;;;6.20;99.90;;;;;;5070460;28;20481;-91
2022/02/18 00:37:36;;;;;;;2.17;1.95;;;6.30;99.90;;;;;;5069415;28;20202;-91
2022/02/18 00:40:04;;;;;;;2.22;1.85;;;6.30;99.90;;;;;;5067593;28;20199;-87
2022/02/18 00:42:32;;;;;;;5.72;1.73;;;6.40;99.90;;;;;;5068299;28;20200;-92
2022/02/18 00:44:59;;;;;;;2.45;1.30;;;6.20;99.90;;;;;;5067174;28;20192;-88
2022/02/18 00:47:26;;;;;;;3.53;1.27;;;6.20;99.90;;;;;;5067395;28;20195;-90
2022/02/18 00:49:54;;;;;;;4.22;1.67;;;6.20;99.90;;;;;;5067423;28;20218;-88
2022/02/18 00:52:21;;;;;;;2.45;1.20;;;6.30;99.90;;;;;;5066993;28;20200;-90
2022/02/18 00:54:49;;;;;;;8.00;1.80;;;6.30;99.90;;;;;;5067875;28;20222;-90
2022/02/18 00:57:16;;;;;;;2.08;1.98;;;6.30;99.90;;;;;;5069158;28;20219;-86
2022/02/18 00:59:44;;;;;;;5.05;1.60;;;6.20;99.90;;;;;;5069333;28;20199;-92
2022/02/18 01:02:11;;;;;;;2.05;1.60;;;6.10;99.90;;;;;;5068397;28;20201;-89
2022/02/18 01:04:38;;;;;;;1.67;1.05;;;6.00;99.90;;;;;;5066671;28;20555;-88
2022/02/18 01:07:06;;;;;;;2.83;1.38;;;6.00;99.90;;;;;;5068815;28;20544;-89
2022/02/18 01:09:33;;;;;;;1.85;0.95;;;5.90;99.90;;;;;;5068290;28;20194;-88
2022/02/18 01:12:03;;;;;;;2.65;1.20;;;5.80;99.90;;;;;;5068046;28;20298;-89
2022/02/18 01:14:30;;;;;;;2.08;1.38;;;5.60;99.90;;;;;;5070055;28;20542;-87
2022/02/18 01:16:57;;;;;;;1.77;1.05;;;5.50;99.90;;;;;;5069291;28;20230;-88
2022/02/18 01:19:25;;;;;;;5.03;1.25;;;5.50;99.90;;;;;;5068722;28;20254;-90
2022/02/18 01:21:52;;;;;;;4.82;1.40;;;5.30;99.90;;;;;;5068512;28;20205;-91
2022/02/18 01:24:21;;;;;;;2.67;2.05;;;5.20;99.90;;;;;;5072649;28;20196;-91
2022/02/18 01:26:48;;;;;;;2.67;1.45;;;5.10;99.90;;;;;;5067245;28;20282;-89
2022/02/18 01:29:15;;;;;;;1.55;0.70;;;5.10;99.90;;;;;;5070742;28;20194;-90
2022/02/18 01:31:44;;;;;;;2.95;1.55;;;5.10;99.90;;;;;;5070669;28;20196;-88
2022/02/18 01:34:11;;;;;;;3.05;0.98;;;5.00;99.90;;;;;;5069359;28;20203;-90
2022/02/18 01:36:40;;;;;;;4.88;1.88;;;5.20;99.90;;;;;;5068103;28;20241;-92
2022/02/18 01:39:07;;;;;;;2.83;1.10;;;5.00;99.90;;;;;;5068866;28;20202;-91
2022/02/18 01:41:35;;;;;;;2.78;1.55;;;5.00;99.90;;;;;;5071683;28;20217;-91
2022/02/18 01:44:05;;;;;;;3.15;1.25;;;4.90;99.90;;;;;;5072719;28;20206;-92
2022/02/18 01:46:37;;;;;;;4.50;1.10;;;4.90;99.90;;;;;;5071876;28;20201;-88
2022/02/18 01:49:04;;;;;;;1.70;0.63;;;4.90;99.90;;;;;;5072805;28;20205;-90
2022/02/18 01:51:33;;;;;;;1.10;1.02;;;4.90;99.90;;;;;;5070048;28;20195;-92
2022/02/18 01:54:01;;;;;;;4.03;1.50;;;5.00;99.90;;;;;;5069293;28;20266;-91
2022/02/18 01:56:31;;;;;;;4.00;1.23;;;5.10;99.90;;;;;;5073226;28;20224;-93
2022/02/18 01:59:00;;;;;;;2.95;2.15;;;4.90;99.90;;;;;;5071736;28;20225;-89
2022/02/18 02:01:28;;;;;;;1.75;1.40;;;4.90;99.90;;;;;;5069193;28;20221;-90
2022/02/18 02:04:02;;;;;;;2.85;1.00;;;4.90;99.90;;;;;;5068127;28;20195;-93
2022/02/18 02:06:31;;;;;;;5.55;1.40;;;4.90;99.90;;;;;;5070459;28;20196;-87
2022/02/18 02:08:59;;;;;;;6.70;2.00;;;4.90;99.90;;;;;;5067409;28;20199;-89
2022/02/18 02:11:26;;;;;;;2.13;1.30;;;4.90;99.90;;;;;;5067929;28;20201;-89
2022/02/18 02:13:54;;;;;;;3.17;1.08;;;4.90;99.90;;;;;;5067487;28;20270;-85
2022/02/18 02:16:22;;;;;;;0.75;0.70;;;5.00;99.90;;;;;;5069126;28;20234;-87
2022/02/18 02:18:49;;;;;;;2.72;1.17;;;5.00;99.90;;;;;;5068319;28;20194;-88
2022/02/18 02:21:17;;;;;;;3.42;1.13;;;4.90;99.90;;;;;;5067152;28;20192;-85
2022/02/18 02:23:44;;;;;;;2.75;1.10;;;4.90;99.90;;;;;;5069462;28;20199;-87
2022/02/18 02:26:12;;;;;;;2.20;1.15;;;4.80;99.90;;;;;;5067952;28;20207;-87
2022/02/18 02:28:40;;;;;;;3.92;1.33;;;4.80;99.90;;;;;;5068252;28;20273;-87
2022/02/18 02:31:08;;;;;;;1.95;1.25;;;4.70;99.90;;;;;;5068510;28;20206;-85
2022/02/18 02:33:35;;;;;;;6.38;1.40;;;4.90;99.90;;;;;;5068429;28;20277;-87
2022/02/18 02:36:02;;;;;;;2.17;1.27;;;4.80;99.90;;;;;;5066769;28;20230;-88
2022/02/18 02:38:30;;;;;;;1.90;1.20;;;4.80;99.90;;;;;;5068058;28;20195;-90
2022/02/18 02:40:58;;;;;;;1.58;1.13;;;4.90;99.90;;;;;;5066704;28;20195;-89
2022/02/18 02:43:27;;;;;;;0.70;0.70;;;4.90;99.90;;;;;;5067469;28;20481;-92
2022/02/18 02:46:07;;;;;;;3.08;1.23;;;4.90;99.90;;;;;;5067150;28;20215;-89
2022/02/18 02:48:34;;;;;;;3.20;1.30;;;5.00;99.90;;;;;;5068006;28;20205;-90
2022/02/18 02:51:04;;;;;;;1.90;1.10;;;4.90;99.90;;;;;;5069637;28;20210;-89
2022/02/18 02:53:35;;;;;;;4.30;2.00;;;4.90;99.90;;;;;;5066809;28;20221;-90
2022/02/18 02:56:03;;;;;;;4.75;1.42;;;4.90;99.90;;;;;;5066426;28;20193;-90
2022/02/18 02:58:31;;;;;;;5.93;1.27;;;4.80;99.90;;;;;;5066222;28;20191;-89
2022/02/18 03:00:59;;;;;;;1.95;1.77;;;4.80;99.90;;;;;;5066613;28;20267;-91
2022/02/18 03:03:26;;;;;;;3.03;1.25;;;4.90;99.90;;;;;;5066777;28;20218;-90
2022/02/18 03:05:54;;;;;;;3.15;1.33;;;4.80;99.90;;;;;;5065448;28;20261;-89
2022/02/18 03:08:21;;;;;;;1.10;1.00;;;4.80;99.90;;;;;;5066453;28;20221;-89
2022/02/18 03:13:35;;;;;;;1.45;1.35;;;4.80;99.90;;;;;;5065578;28;20229;-89
2022/02/18 03:16:03;;;;;;;1.00;0.80;;;4.70;99.90;;;;;;5066077;28;20218;-89
2022/02/18 03:18:31;;;;;;;1.95;1.00;;;4.70;99.90;;;;;;5065494;28;20435;-89
2022/02/18 03:20:58;;;;;;;0.93;0.93;;;4.80;99.90;;;;;;5069403;28;20202;-93
2022/02/18 03:23:26;;;;;;;3.63;1.73;;;4.50;99.90;;;;;;5066662;28;20218;-95
2022/02/18 03:25:54;;;;;;;2.17;1.23;;;4.60;99.90;;;;;;5065932;28;20190;-88
2022/02/18 03:28:22;;;;;;;1.70;1.02;;;4.70;99.90;;;;;;5065140;28;20244;-91
2022/02/18 03:30:49;;;;;;;3.40;1.08;;;4.70;99.90;;;;;;5066350;28;20198;-88
2022/02/18 03:33:18;;;;;;;1.35;1.35;;;4.60;99.90;;;;;;5067648;28;20206;-93
2022/02/18 03:35:59;;;;;;;3.00;1.75;;;4.50;99.90;;;;;;5066434;28;20221;-91
2022/02/18 03:38:27;;;;;;;2.22;1.55;;;4.60;99.90;;;;;;5066014;28;20191;-91
2022/02/18 03:40:55;;;;;;;1.25;1.10;;;4.50;99.90;;;;;;5064856;28;20185;-88
2022/02/18 03:43:22;;;;;;;3.80;1.55;;;4.40;99.90;;;;;;5067767;28;20258;-90
2022/02/18 03:45:50;;;;;;;2.65;1.30;;;4.40;99.90;;;;;;5065731;28;20199;-91
2022/02/18 03:48:17;;;;;;;4.00;1.25;;;4.40;99.90;;;;;;5067796;28;20484;-90
2022/02/18 03:50:45;;;;;;;4.68;1.38;;;4.20;99.90;;;;;;5064878;28;20483;-92
2022/02/18 03:53:14;;;;;;;4.20;1.20;;;4.30;99.90;;;;;;5066848;28;20190;-88
2022/02/18 03:55:41;;;;;;;1.90;1.30;;;4.30;99.90;;;;;;5066418;28;20229;-91
2022/02/18 03:58:09;;;;;;;1.13;0.93;;;4.20;99.90;;;;;;5068287;28;20524;-90
2022/02/18 04:00:37;;;;;;;4.18;1.95;;;4.10;99.90;;;;;;5066374;28;20270;-90
2022/02/18 04:03:05;;;;;;;2.20;1.45;;;4.10;99.90;;;;;;5066092;28;20200;-86
2022/02/18 04:05:32;;;;;;;2.85;1.60;;;4.20;99.90;;;;;;5065581;28;20201;-89
2022/02/18 04:08:00;;;;;;;2.75;1.30;;;4.20;99.90;;;;;;5067437;28;20490;-90
2022/02/18 04:10:28;;;;;;;4.20;2.13;;;4.20;99.90;;;;;;5065419;28;20390;-87
2022/02/18 04:12:56;;;;;;;3.65;2.17;;;4.20;99.90;;;;;;5065839;28;20195;-88
2022/02/18 04:15:23;;;;;;;1.52;1.17;;;4.20;99.90;;;;;;5064662;28;20436;-92
2022/02/18 04:17:51;;;;;;;4.32;1.80;;;4.30;99.90;;;;;;5065166;28;20366;-89
2022/02/18 04:20:19;;;;;;;4.40;1.40;;;4.30;99.90;;;;;;5066330;28;20343;-91
2022/02/18 04:23:06;;;;;;;2.35;1.30;;;4.30;99.90;;;;;;5066424;28;20233;-87
2022/02/18 04:25:36;;;;;;;4.25;1.38;;;4.40;99.90;;;;;;5066471;28;20186;-91
2022/02/18 04:28:07;;;;;;;1.70;1.23;;;4.50;99.90;;;;;;5064651;28;20206;-88
2022/02/18 04:30:35;;;;;;;3.38;1.10;;;4.40;99.90;;;;;;5064603;28;20516;-89
2022/02/18 04:33:03;;;;;;;3.85;1.67;;;4.50;99.90;;;;;;5065543;28;20203;-91
2022/02/18 04:35:30;;;;;;;1.60;1.50;;;4.60;99.90;;;;;;5065716;28;20245;-91
2022/02/18 04:37:57;;;;;;;1.75;0.77;;;4.70;99.90;;;;;;5065886;28;20527;-89
2022/02/18 04:40:25;;;;;;;2.05;1.17;;;4.60;99.90;;;;;;5064386;28;20509;-88
2022/02/18 04:42:52;;;;;;;1.10;0.95;;;4.50;99.90;;;;;;5064792;28;20202;-89
2022/02/18 04:45:20;;;;;;;2.65;1.50;;;4.50;99.90;;;;;;5065392;28;20507;-88
2022/02/18 04:47:47;;;;;;;2.10;1.67;;;4.70;99.90;;;;;;5055862;28;20204;-89
2022/02/18 04:50:15;;;;;;;4.38;1.33;;;4.60;99.90;;;;;;5054027;28;20281;-91
2022/02/18 04:52:43;;;;;;;3.40;1.35;;;4.50;99.90;;;;;;5066414;28;20213;-90
2022/02/18 04:55:10;;;;;;;1.73;1.20;;;4.50;99.90;;;;;;5065862;28;20493;-88
2022/02/18 04:57:46;;;;;;;3.38;1.85;;;4.40;99.90;;;;;;5065132;28;20218;-89
2022/02/18 05:00:14;;;;;;;6.43;2.08;;;4.40;99.90;;;;;;5065123;28;20238;-90
2022/02/18 05:02:44;;;;;;;6.05;1.60;;;4.20;99.90;;;;;;5069058;28;20198;-90
2022/02/18 05:05:16;;;;;;;6.55;1.85;;;4.10;99.90;;;;;;5076942;28;20283;-90
2022/02/18 05:08:04;;;;;;;5.15;2.08;;;4.00;99.90;;;;;;5075816;28;20201;-94
2022/02/18 05:10:38;;;;;;;2.70;1.90;;;4.00;99.90;;;;;;5078464;28;20228;-94
2022/02/18 05:13:27;;;;;;;4.60;1.30;;;4.00;99.90;;;;;;5076852;28;20217;-93
2022/02/18 05:16:08;;;;;;;4.97;1.40;;;3.90;99.90;;;;;;5075125;28;20302;-95
2022/02/18 05:18:37;;;;;;;3.58;1.52;;;3.90;99.90;;;;;;5070563;28;20216;-91
2022/02/18 05:21:06;;;;;;;4.80;3.30;;;3.80;99.90;;;;;;5069304;28;20194;-91
2022/02/18 05:23:34;;;;;;;3.13;2.85;;;3.80;99.90;;;;;;5068507;28;20185;-91
2022/02/18 05:26:01;;;;;;;2.25;1.42;;;3.70;99.90;;;;;;5071851;28;20194;-91
2022/02/18 05:28:34;;;;;;;3.92;1.42;;;3.70;99.90;;;;;;5076136;28;20427;-90
2022/02/18 05:31:21;;;;;;;4.00;1.48;;;3.70;99.90;;;;;;5076736;28;20221;-91
2022/02/18 05:34:08;;;;;;;4.85;1.75;;;3.70;99.90;;;;;;5074191;28;20255;-89
2022/02/18 05:36:38;;;;;;;15.75;3.17;;;3.60;99.90;;;;;;5076076;28;20259;-88
2022/02/18 05:39:12;;;;;;;4.57;0.90;;;3.70;99.90;;;;;;5076512;28;20256;-91
2022/02/18 05:41:46;;;;;;;7.47;2.13;;;3.70;99.90;;;;;;5077235;28;20185;-92
2022/02/18 05:44:31;;;;;;;2.05;1.50;;;3.60;99.90;;;;;;5074478;28;20239;-90
2022/02/18 05:47:00;;;;;;;1.77;1.25;;;3.50;99.90;;;;;;5051644;28;20197;-92
2022/02/18 05:49:28;;;;;;;6.00;1.10;;;3.50;99.90;;;;;;5048649;28;20201;-88
2022/02/18 05:51:59;;;;;;;3.10;1.88;;;3.60;99.90;;;;;;5047343;28;20202;-89
2022/02/18 05:54:26;;;;;;;3.90;1.45;;;3.60;99.90;;;;;;5048134;28;20193;-87
2022/02/18 05:56:58;;;;;;;4.70;1.25;;;3.50;99.90;;;;;;5047887;28;20218;-92
2022/02/18 05:59:27;;;;;;;1.20;0.80;;;3.50;99.90;;;;;;5049467;28;20206;-93
2022/02/18 06:01:54;;;;;;;5.75;1.48;;;3.50;99.90;;;;;;5049089;28;20190;-93
2022/02/18 06:04:22;;;;;;;3.22;1.60;;;3.60;99.90;;;;;;5048418;28;20228;-93
2022/02/18 06:06:50;;;;;;;3.20;1.73;;;3.70;99.90;;;;;;5050454;28;20193;-93
2022/02/18 06:09:18;;;;;;;4.78;1.20;;;3.80;99.90;;;;;;5047792;28;20378;-92
2022/02/18 06:11:46;;;;;;;3.30;1.52;;;3.80;99.90;;;;;;5048686;28;20194;-93
2022/02/18 06:14:13;;;;;;;3.22;0.85;;;4.00;99.90;;;;;;5049216;28;20211;-91
2022/02/18 06:16:41;;;;;;;3.47;1.65;;;3.90;99.90;;;;;;5048163;28;20208;-91
2022/02/18 06:19:09;;;;;;;2.25;1.00;;;3.90;99.90;;;;;;5049251;28;20229;-92
2022/02/18 06:21:40;;;;;;;6.10;1.55;;;4.10;99.90;;;;;;5064138;28;20193;-90
2022/02/18 06:24:11;;;;;;;1.65;1.55;;;3.90;99.90;;;;;;5050238;28;20197;-89
2022/02/18 06:26:39;;;;;;;4.75;1.30;;;4.00;99.90;;;;;;5068691;28;20211;-91
2022/02/18 06:29:07;;;;;;;5.47;2.40;;;4.00;99.90;;;;;;5067731;28;20194;-90
2022/02/18 06:31:34;;;;;;;8.13;2.45;;;4.10;99.90;;;;;;5067705;28;20181;-90
2022/02/18 06:34:02;;;;;;;2.10;1.17;;;4.30;99.90;;;;;;5067539;28;20265;-92
2022/02/18 06:36:30;;;;;;;4.47;2.70;;;4.40;99.90;;;;;;5067179;28;20198;-92
2022/02/18 06:38:57;;;;;;;3.67;1.40;;;4.40;99.90;;;;;;5067398;28;20240;-92
2022/02/18 06:41:25;;;;;;;3.08;1.80;;;4.70;99.90;;;;;;5067637;28;20193;-93
2022/02/18 06:43:53;;;;;;;10.07;3.20;;;4.80;99.90;;;;;;5066241;28;20238;-93
2022/02/18 06:46:20;;;;;;;4.05;1.70;;;4.90;99.90;;;;;;5067881;28;20201;-91
2022/02/18 06:48:48;;;;;;;5.07;2.15;;;5.20;99.90;;;;;;5066857;28;20249;-92
2022/02/18 06:51:15;;;;;;;3.08;2.35;;;5.40;99.90;;;;;;5067419;28;20269;-91
2022/02/18 06:53:42;;;;;;;1.98;1.63;;;5.30;99.90;;;;;;5068402;28;20209;-92
2022/02/18 06:56:10;;;;;;;5.63;1.80;;;5.10;99.90;;;;;;5066623;28;20210;-91
2022/02/18 06:58:37;;;;;;;4.70;2.50;;;5.10;99.90;;;;;;5066173;28;20223;-91
2022/02/18 07:01:05;;;;;;;2.70;2.45;;;5.20;99.90;;;;;;5066901;28;20191;-91
2022/02/18 07:03:33;;;;;;;3.83;1.88;;;5.20;99.90;;;;;;5068909;28;20202;-91
2022/02/18 07:06:03;;;;;;;2.33;1.50;;;5.40;99.90;;;;;;5068203;28;20199;-91
2022/02/18 07:08:31;;;;;;;6.47;2.25;;;5.50;99.90;;;;;;5067749;28;20200;-92
2022/02/18 07:10:59;;;;;;;7.30;2.70;;;5.60;99.90;;;;;;5068461;28;20210;-92
2022/02/18 07:13:27;;;;;;;4.50;2.45;;;5.90;99.90;;;;;;5067715;28;20206;-92
2022/02/18 07:15:55;;;;;;;12.13;5.18;;;6.20;99.90;;;;;;5068689;28;20198;-91
2022/02/18 07:18:23;;;;;;;2.25;1.50;;;6.30;99.90;;;;;;5067133;28;20225;-93
2022/02/18 07:20:52;;;;;;;3.95;2.00;;;6.40;99.90;;;;;;5066904;28;20203;-92
2022/02/18 07:23:19;;;;;;;3.28;2.47;;;6.50;99.90;;;;;;5067479;28;20266;-93
2022/02/18 07:25:46;;;;;;;10.02;2.33;;;6.70;99.90;;;;;;5066671;28;20271;-91
2022/02/18 07:28:17;;;;;;;15.50;3.83;;;6.80;99.90;;;;;;5066059;28;20207;-91
2022/02/18 07:30:45;;;;;;;3.38;1.30;;;6.80;99.90;;;;;;5068613;28;20267;-94
2022/02/18 07:33:13;;;;;;;4.10;2.65;;;7.10;99.90;;;;;;5064535;28;20200;-92
2022/02/18 07:35:43;;;;;;;4.55;2.72;;;7.40;99.90;;;;;;5049635;28;20199;-94
2022/02/18 07:38:11;;;;;;;8.05;2.60;;;8.10;99.90;;;;;;5049436;28;20224;-92
2022/02/18 07:40:43;;;;;;;3.90;2.53;;;9.20;99.90;;;;;;5050797;28;20212;-94
2022/02/18 07:43:11;;;;;;;9.38;2.72;;;10.20;99.90;;;;;;5049825;28;20206;-92
2022/02/18 07:46:02;;;;;;;6.47;2.35;;;11.20;99.90;;;;;;5049024;28;20210;-93
2022/02/18 07:48:33;;;;;;;3.38;2.00;;;12.10;99.90;;;;;;5067576;28;20210;-93
2022/02/18 07:51:03;;;;;;;3.60;2.83;;;12.80;99.90;;;;;;5068617;28;20191;-94
2022/02/18 07:53:30;;;;;;;4.03;2.80;;;13.30;99.90;;;;;;5069164;28;20477;-92
2022/02/18 07:55:57;;;;;;;3.88;2.47;;;14.10;99.90;;;;;;5072735;28;20188;-94
2022/02/18 07:58:28;;;;;;;8.57;3.20;;;14.30;99.90;;;;;;5068864;28;20219;-94
2022/02/18 08:00:57;;;;;;;6.45;3.03;;;14.70;99.90;;;;;;5068807;28;20266;-94
2022/02/18 08:03:26;;;;;;;6.10;3.00;;;15.50;99.90;;;;;;5068269;28;20263;-93
2022/02/18 08:05:54;;;;;;;6.57;2.90;;;15.90;99.90;;;;;;5069198;28;20192;-92
2022/02/18 08:08:24;;;;;;;2.30;1.73;;;16.20;99.90;;;;;;5068026;28;20502;-94
2022/02/18 08:10:52;;;;;;;4.07;2.00;;;16.00;99.90;;;;;;5068347;28;20418;-93
2022/02/18 08:13:19;;;;;;;5.33;2.50;;;15.80;99.90;;;;;;5068150;28;20414;-93
2022/02/18 08:15:47;;;;;;;3.27;2.30;;;15.40;99.90;;;;;;5070162;28;20517;-95
2022/02/18 08:18:27;;;;;;;3.97;1.77;;;15.30;99.90;;;;;;5069730;28;20430;-95
2022/02/18 08:20:55;;;;;;;6.50;2.53;;;16.30;99.90;;;;;;5071548;28;20469;-94
2022/02/18 08:23:23;;;;;;;7.17;2.90;;;16.90;99.90;;;;;;5069802;28;20793;-94
2022/02/18 08:25:51;;;;;;;2.37;1.80;;;16.40;99.90;;;;;;5068717;28;20415;-93
2022/02/18 08:28:19;;;;;;;6.53;2.33;;;17.10;99.60;;;;;;5070378;28;20430;-94
2022/02/18 08:30:52;;;;;;;5.23;2.40;;;17.30;97.60;;;;;;5070072;28;20434;-95
2022/02/18 08:33:24;;;;;;;6.80;2.53;;;16.80;98.90;;;;;;5070409;28;20440;-94
2022/02/18 08:35:54;;;;;;;2.13;1.93;;;17.10;98.80;;;;;;5069328;28;20667;-94
2022/02/18 08:38:21;;;;;;;2.40;2.20;;;16.10;99.20;;;;;;5078994;23;20494;-48
2022/02/18 08:40:49;;;;;;;8.00;3.17;;;15.10;99.90;;;;;;5056922;28;20440;-45
2022/02/18 08:43:20;;;;;;;3.47;2.37;;;15.30;99.90;;;;;;5043561;28;20443;-51
2022/02/18 08:45:49;;;;;;;5.53;2.50;;;15.80;99.90;;;;;;5056144;28;20402;-49
2022/02/18 08:48:16;;;;;;;17.97;3.30;;;15.90;99.90;;;;;;5056068;28;20746;-48
2022/02/18 08:50:43;;;;;;;3.00;2.30;;;16.20;99.90;;;;;;5056762;28;20437;-51
2022/02/18 08:53:11;;;;;;;4.13;2.30;;;15.50;99.90;;;;;;5052417;28;20448;-44
2022/02/18 08:55:38;;;;;;;8.17;3.93;;;15.80;99.90;;;;;;5057318;28;20404;-47
2022/02/18 08:58:06;;;;;;;9.10;4.60;;;15.20;99.90;;;;;;5054960;28;20931;-45
2022/02/18 09:00:34;;;;;;;3.73;2.23;;;15.30;99.90;;;;;;5057436;28;20561;-49
2022/02/18 09:03:09;;;;;;;5.40;1.83;;;15.90;99.90;;;;;;5054957;28;20435;-51
2022/02/18 09:05:37;;;;;;;4.73;2.27;;;15.50;99.90;;;;;;5057046;28;20408;-48
2022/02/18 09:08:04;;;;;;;6.17;2.30;;;15.40;99.90;;;;;;5054950;28;20859;-51
2022/02/18 09:10:31;;;;;;;2.50;1.77;;;15.20;99.90;;;;;;5055355;28;20502;-49
2022/02/18 09:12:59;;;;;;;2.72;1.23;;;14.10;99.90;;;;;;5052010;28;20727;-53
2022/02/18 09:15:26;;;;;;;7.07;3.22;;;13.60;99.90;;;;;;5051557;28;20337;-46
2022/02/18 09:17:55;;;;;;;2.90;1.60;;;13.60;99.90;;;;;;5055505;28;20231;-48
2022/02/18 09:20:22;;;;;;;8.80;2.33;;;13.00;99.90;;;;;;5056324;28;20486;-49
2022/02/18 09:22:49;;;;;;;6.65;1.77;;;12.80;99.90;;;;;;5055985;28;20246;-46
2022/02/18 09:25:17;;;;;;;3.35;1.70;;;12.20;99.90;;;;;;5055710;28;20244;-50
2022/02/18 09:27:44;;;;;;;7.18;2.33;;;12.10;99.90;;;;;;5056528;28;20222;-50
2022/02/18 09:30:12;;;;;;;8.43;2.60;;;12.20;99.90;;;;;;5052867;28;20298;-48
2022/02/18 09:33:00;;;;;;;3.75;1.90;;;11.80;99.90;;;;;;5056455;28;20206;-48
2022/02/18 09:35:28;;;;;;;5.97;2.22;;;11.20;99.90;;;;;;5060064;28;20405;-45
2022/02/18 09:37:56;;;;;;;5.28;2.22;;;10.90;99.90;;;;;;5058875;28;20254;-48
2022/02/18 09:40:23;;;;;;;4.00;1.80;;;10.70;99.90;;;;;;5060568;28;20199;-49
2022/02/18 09:42:52;;;;;;;3.67;2.20;;;10.70;99.90;;;;;;5059640;28;20245;-48
2022/02/18 09:45:20;;;;;;;1.98;1.75;;;11.00;99.90;;;;;;5060001;28;20199;-47
2022/02/18 09:47:50;;;;;;;4.55;1.85;;;10.80;99.90;;;;;;5058106;28;20269;-47
2022/02/18 09:50:17;;;;;;;5.07;2.55;;;10.80;99.90;;;;;;5050511;28;20248;-46
2022/02/18 09:53:05;;;;;;;3.17;1.60;;;10.70;99.90;;;;;;5058694;28;20215;-49
2022/02/18 09:55:37;;;;;;;4.72;2.65;;;10.70;99.90;;;;;;5056361;28;20559;-50
2022/02/18 09:58:05;;;;;;;5.05;2.20;;;10.60;99.90;;;;;;5058518;28;20478;-49
2022/02/18 10:00:34;;;;;;;2.58;1.77;;;10.60;99.90;;;;;;5057965;28;20429;-48
2022/02/18 10:03:01;;;;;;;3.78;2.65;;;10.80;99.90;;;;;;5047268;28;20199;-47
2022/02/18 10:05:28;;;;;;;6.38;2.03;;;11.00;99.90;;;;;;5051909;28;20198;-47
2022/02/18 10:08:02;;;;;;;2.63;2.03;;;11.10;99.90;;;;;;5055785;28;20222;-46
2022/02/18 10:10:30;;;;;;;6.68;2.38;;;11.30;99.90;;;;;;5058632;28;20272;-49
2022/02/18 10:12:58;;;;;;;7.38;2.45;;;11.60;99.90;;;;;;5056382;28;20225;-50
2022/02/18 10:15:25;;;;;;;4.70;2.00;;;11.80;99.90;;;;;;5056760;28;20210;-50
2022/02/18 10:18:05;;;;;;;6.55;2.22;;;11.90;99.90;;;;;;5058168;28;20265;-46
2022/02/18 10:20:33;;;;;;;5.35;2.17;;;12.30;99.90;;;;;;5052441;28;20200;-50
2022/02/18 10:23:07;;;;;;;4.85;3.90;;;12.10;99.90;;;;;;5058163;28;20197;-52
2022/02/18 10:25:41;;;;;;;7.78;1.90;;;11.70;99.90;;;;;;5058504;28;20191;-52
2022/02/18 10:28:13;;;;;;;4.28;1.75;;;11.40;99.90;;;;;;5058120;28;20205;-49
2022/02/18 10:30:42;;;;;;;3.15;2.00;;;11.30;99.90;;;;;;5057879;28;20278;-46
2022/02/18 10:33:09;;;;;;;6.93;2.83;;;11.30;99.90;;;;;;5055529;28;20413;-45
2022/02/18 10:35:38;;;;;;;5.10;2.20;;;11.50;99.90;;;;;;5056816;28;20202;-47
2022/02/18 10:38:07;;;;;;;10.75;2.67;;;11.60;99.90;;;;;;5049839;28;20227;-47
2022/02/18 10:40:45;;;;;;;5.97;1.83;;;11.50;99.90;;;;;;5057081;28;20206;-48
2022/02/18 10:43:14;;;;;;;3.97;1.98;;;11.30;99.90;;;;;;5053843;28;20208;-49
2022/02/18 10:46:01;;;;;;;4.70;2.08;;;11.30;99.90;;;;;;5056725;28;20198;-48
2022/02/18 10:48:33;;;;;;;4.18;2.10;;;11.30;99.90;;;;;;5054906;28;20199;-49
2022/02/18 10:51:08;;;;;;;4.28;2.00;;;11.20;99.90;;;;;;5055773;28;20212;-45
2022/02/18 10:53:37;;;;;;;1.67;1.50;;;11.00;99.90;;;;;;5040193;28;20202;-47
2022/02/18 10:56:08;;;;;;;6.28;2.65;;;10.80;99.90;;;;;;5051154;28;20223;-46
2022/02/18 10:58:36;;;;;;;6.40;1.73;;;10.90;99.90;;;;;;5057490;28;20226;-47
2022/02/18 11:01:24;;;;;;;4.10;2.15;;;11.00;99.90;;;;;;5056130;28;20509;-45
2022/02/18 11:03:59;;;;;;;4.10;2.40;;;11.00;99.90;;;;;;5054933;28;20199;-47
2022/02/18 11:06:28;;;;;;;6.28;2.85;;;11.10;99.90;;;;;;5055456;28;20253;-49
2022/02/18 11:09:01;;;;;;;5.65;2.03;;;11.10;99.90;;;;;;5055076;28;20347;-45
2022/02/18 11:11:31;;;;;;;3.78;1.92;;;11.10;99.90;;;;;;5053847;28;20204;-45
2022/02/18 11:14:00;;;;;;;9.50;2.83;;;11.20;99.90;;;;;;5056120;28;20488;-46
2022/02/18 11:16:29;;;;;;;4.72;1.90;;;11.40;99.90;;;;;;5055418;28;20220;-45
2022/02/18 11:18:57;;;;;;;6.45;2.13;;;11.60;99.90;;;;;;5055544;28;20607;-49
2022/02/18 11:21:27;;;;;;;3.22;2.05;;;11.70;99.90;;;;;;5056180;28;20210;-47
2022/02/18 11:23:55;;;;;;;3.28;1.85;;;11.80;99.90;;;;;;5055443;28;20197;-47
2022/02/18 11:26:27;;;;;;;4.78;2.08;;;11.90;99.90;;;;;;5056394;28;20221;-48
2022/02/18 11:28:55;;;;;;;3.65;2.55;;;11.80;99.90;;;;;;5055071;28;20214;-49
2022/02/18 11:31:27;;;;;;;4.10;2.25;;;11.80;99.90;;;;;;5056392;28;20207;-48
2022/02/18 11:34:16;;;;;;;7.00;2.10;;;11.90;99.90;;;;;;5054980;28;20202;-46
2022/02/18 11:37:14;;;;;;;2.67;1.92;;;11.90;99.90;;;;;;5054011;28;20431;-50
2022/02/18 11:39:58;;;;;;;3.92;2.20;;;11.80;99.90;;;;;;5053965;28;20233;-49
2022/02/18 11:42:28;;;;;;;5.38;2.47;;;11.60;99.90;;;;;;5054949;28;20230;-45
2022/02/18 11:44:56;;;;;;;7.72;2.60;;;11.40;99.90;;;;;;5054529;28;20221;-47
2022/02/18 11:47:24;;;;;;;8.02;3.42;;;11.20;99.90;;;;;;5052251;28;20316;-52
2022/02/18 11:49:53;;;;;;;3.38;1.60;;;11.10;99.90;;;;;;5054978;28;20203;-49
2022/02/18 11:52:22;;;;;;;3.30;2.65;;;10.90;99.90;;;;;;5051449;28;20210;-46
2022/02/18 11:54:50;;;;;;;5.03;1.65;;;10.90;99.90;;;;;;5054614;28;20201;-46
2022/02/18 11:57:19;;;;;;;3.97;2.03;;;10.90;99.90;;;;;;5040452;28;20261;-50
2022/02/18 12:00:06;;;;;;;5.97;1.65;;;10.90;99.90;;;;;;5055366;28;20222;-46
2022/02/18 12:02:49;;;;;;;4.18;1.88;;;11.00;99.90;;;;;;5055425;28;20195;-46
2022/02/18 12:05:20;;;;;;;2.70;2.00;;;11.20;99.90;;;;;;5055199;28;20204;-48
2022/02/18 12:07:49;;;;;;;6.07;3.28;;;11.50;99.90;;;;;;5053385;28;20667;-48
2022/02/18 12:10:23;;;;;;;6.57;1.92;;;11.70;99.90;;;;;;5054009;28;20199;-49
2022/02/18 12:12:58;;;;;;;3.70;2.15;;;11.90;99.90;;;;;;5059747;28;20265;-47
2022/02/18 12:15:29;;;;;;;7.28;3.38;;;12.10;99.90;;;;;;5060647;28;20197;-49
2022/02/18 12:18:03;;;;;;;4.55;2.25;;;12.10;99.90;;;;;;5060438;28;20228;-44
2022/02/18 12:20:37;;;;;;;4.93;1.98;;;12.10;99.90;;;;;;5062459;28;20221;-46
2022/02/18 12:23:28;;;;;;;4.07;2.65;;;12.30;99.90;;;;;;5060485;28;20449;-47
2022/02/18 12:26:24;;;;;;;5.32;2.38;;;12.40;99.90;;;;;;5060667;28;20212;-45
2022/02/18 12:29:11;;;;;;;5.18;2.22;;;12.50;99.90;;;;;;5061193;28;20202;-49
2022/02/18 12:31:53;;;;;;;1.98;1.73;;;12.40;99.90;;;;;;5059093;28;20199;-52
2022/02/18 12:34:28;;;;;;;1.42;1.33;;;12.50;99.90;;;;;;5056841;28;20249;-52
2022/02/18 12:36:56;;;;;;;2.97;2.47;;;12.60;99.90;;;;;;5060346;28;20532;-49
2022/02/18 12:39:47;;;;;;;5.65;2.00;;;12.60;99.90;;;;;;5062012;28;20276;-50
2022/02/18 12:42:21;;;;;;;1.75;1.55;;;12.60;99.90;;;;;;5061072;28;20210;-48
2022/02/18 12:44:55;;;;;;;3.47;2.25;;;12.50;99.90;;;;;;5061062;28;20200;-53
2022/02/18 12:47:28;;;;;;;2.58;2.08;;;12.40;99.90;;;;;;5057062;28;20215;-49
2022/02/18 12:49:58;;;;;;;4.97;2.60;;;12.40;99.90;;;;;;5060081;28;20221;-52
2022/02/18 12:52:27;;;;;;;5.47;2.28;;;12.40;99.90;;;;;;5061541;28;20229;-49
2022/02/18 12:55:01;;;;;;;6.28;2.80;;;12.40;99.90;;;;;;5060045;28;20246;-50
2022/02/18 12:57:32;;;;;;;9.43;2.40;;;12.20;99.90;;;;;;5057590;28;20257;-48
2022/02/18 13:00:00;;;;;;;4.57;1.90;;;11.90;99.90;;;;;;5060235;28;20233;-44
2022/02/18 13:02:38;;;;;;;5.13;2.25;;;11.70;99.90;;;;;;5061719;28;20199;-51
2022/02/18 13:05:11;;;;;;;8.88;2.17;;;11.40;99.90;;;;;;5059817;28;20199;-47
2022/02/18 13:07:47;;;;;;;6.28;1.50;;;11.40;99.90;;;;;;5061510;28;20310;-49
2022/02/18 13:10:20;;;;;;;3.72;1.85;;;11.60;99.90;;;;;;5059853;28;20210;-49